Time;durP1;ratioP1;P1;durP2;ratioP2;P2;SDS_P1;SDS_P2;PMS_P1;PMS_P2;Temp;Humidity;BMP_temperature;BMP_pressure;BME280_temperature;BME280_humidity;BME280_pressure;Samples;Min_cycle;Max_cycle;Signal;HPM_P1;HPM_P2
2021/06/15 00:00:04;;;;;;;9.40;3.85;;;;;;;17.00;100.00;100871.75;5211727;28;20490;-78
2021/06/15 00:02:34;;;;;;;10.63;4.45;;;;;;;16.99;100.00;100869.22;5218149;28;20406;-78
2021/06/15 00:05:07;;;;;;;10.98;4.60;;;;;;;17.20;100.00;100868.00;5215827;28;20025;-78
2021/06/15 00:07:38;;;;;;;7.22;4.03;;;;;;;17.27;99.93;100872.81;5217890;28;20620;-78
2021/06/15 00:10:12;;;;;;;9.75;4.10;;;;;;;17.41;98.91;100866.75;5216137;28;20033;-78
2021/06/15 00:12:42;;;;;;;9.98;3.83;;;;;;;17.28;99.40;100863.97;5218693;28;20128;-78
2021/06/15 00:15:15;;;;;;;8.73;3.92;;;;;;;16.89;99.92;100860.13;5215291;28;20166;-78
2021/06/15 00:17:46;;;;;;;7.25;3.78;;;;;;;16.83;99.40;100863.13;5217033;28;20025;-78
2021/06/15 00:20:18;;;;;;;9.27;4.05;;;;;;;16.80;98.73;100869.41;5213367;28;20032;-79
2021/06/15 00:22:48;;;;;;;10.23;3.95;;;;;;;16.74;100.00;100870.69;5221360;28;20482;-78
2021/06/15 00:25:19;;;;;;;9.60;3.83;;;;;;;16.79;99.53;100872.97;5206702;28;20040;-78
2021/06/15 00:27:49;;;;;;;8.05;3.95;;;;;;;16.78;100.00;100870.44;5216486;28;20025;-78
2021/06/15 00:30:21;;;;;;;7.53;3.63;;;;;;;16.73;100.00;100872.47;5218373;28;20025;-78
2021/06/15 00:32:52;;;;;;;8.80;3.97;;;;;;;16.69;100.00;100872.75;5215130;28;20021;-78
2021/06/15 00:35:22;;;;;;;10.15;3.80;;;;;;;16.71;100.00;100874.34;5218705;28;20029;-78
2021/06/15 00:37:53;;;;;;;11.18;4.30;;;;;;;16.55;100.00;100876.13;5216003;28;20033;-79
2021/06/15 00:40:24;;;;;;;8.57;4.18;;;;;;;16.64;100.00;100875.63;5223477;28;20210;-78
2021/06/15 00:42:54;;;;;;;6.90;3.58;;;;;;;16.69;100.00;100876.22;5216213;28;20056;-78
2021/06/15 00:45:27;;;;;;;8.02;4.10;;;;;;;16.70;98.78;100877.94;5219119;28;20053;-78
2021/06/15 00:47:57;;;;;;;9.38;4.00;;;;;;;16.66;100.00;100886.09;5219580;28;20441;-78
2021/06/15 00:50:29;;;;;;;8.52;3.78;;;;;;;16.82;99.66;100883.38;5207671;28;20029;-79
2021/06/15 00:52:59;;;;;;;9.27;4.07;;;;;;;16.83;100.00;100879.78;5207528;28;20026;-78
2021/06/15 00:55:29;;;;;;;8.18;3.60;;;;;;;16.70;100.00;100880.56;5209605;28;20498;-78
2021/06/15 00:57:59;;;;;;;8.75;3.45;;;;;;;16.62;100.00;100874.88;5208088;28;20083;-78
2021/06/15 01:00:30;;;;;;;10.63;3.90;;;;;;;16.91;96.47;100882.00;5201034;28;20030;-78
2021/06/15 01:03:00;;;;;;;10.55;3.78;;;;;;;16.61;99.22;100878.47;5211214;28;20490;-78
2021/06/15 01:05:30;;;;;;;11.23;3.50;;;;;;;16.52;98.91;100884.22;5218787;28;20029;-78
2021/06/15 01:08:28;;;;;;;12.30;3.50;;;;;;;16.62;96.98;100885.44;5218088;28;20029;-78
2021/06/15 01:11:25;;;;;;;10.43;3.25;;;;;;;16.61;96.10;100886.38;5211751;28;20029;-78
2021/06/15 01:14:11;;;;;;;9.48;3.20;;;;;;;16.44;96.04;100894.38;5207455;28;20070;-78
2021/06/15 01:16:54;;;;;;;14.30;3.78;;;;;;;16.42;95.96;100896.19;5245878;22;20037;-78
2021/06/15 01:19:43;;;;;;;12.57;3.90;;;;;;;16.27;94.58;100881.19;5235468;28;20036;-78
2021/06/15 01:22:43;;;;;;;14.48;3.80;;;;;;;16.02;97.61;100890.50;5235912;28;20536;-78
2021/06/15 01:25:22;;;;;;;9.88;3.72;;;;;;;16.07;97.72;100891.09;5231121;28;20038;-78
2021/06/15 01:28:02;;;;;;;11.05;3.80;;;;;;;15.95;99.66;100891.72;5211270;28;20076;-78
2021/06/15 01:30:43;;;;;;;10.00;3.70;;;;;;;15.82;100.00;100891.53;5217001;28;20104;-78
2021/06/15 01:33:15;;;;;;;10.75;3.75;;;;;;;15.75;100.00;100899.81;5217096;28;20079;-78
2021/06/15 01:35:47;;;;;;;8.48;3.72;;;;;;;15.80;100.00;100900.44;5219099;28;20032;-78
2021/06/15 01:38:24;;;;;;;9.93;4.80;;;;;;;15.95;100.00;100897.00;5215154;28;20109;-78
2021/06/15 01:41:01;;;;;;;8.30;3.97;;;;;;;16.02;100.00;100904.50;5215413;28;20023;-78
2021/06/15 01:43:33;;;;;;;8.90;4.05;;;;;;;16.07;100.00;100913.03;5218535;28;20829;-78
2021/06/15 01:46:07;;;;;;;8.15;3.97;;;;;;;16.13;100.00;100919.78;5216837;28;20479;-80
2021/06/15 01:48:49;;;;;;;8.45;3.90;;;;;;;16.40;98.36;100905.16;5217448;28;20056;-77
2021/06/15 01:51:22;;;;;;;11.18;4.10;;;;;;;16.35;98.41;100910.69;5219750;28;20125;-78
2021/06/15 01:53:57;;;;;;;7.63;3.80;;;;;;;16.14;99.49;100911.78;5213014;28;20112;-78
2021/06/15 01:56:29;;;;;;;10.18;4.22;;;;;;;16.04;99.21;100915.00;5212790;28;20041;-78
2021/06/15 01:59:01;;;;;;;7.20;3.83;;;;;;;15.98;100.00;100912.66;5214968;28;20032;-78
2021/06/15 02:01:34;;;;;;;10.00;4.07;;;;;;;15.91;100.00;100914.75;5216135;28;20025;-77
2021/06/15 02:04:05;;;;;;;23.38;9.70;;;;;;;15.59;100.00;100915.59;5219069;28;20104;-77
2021/06/15 02:06:36;;;;;;;12.60;5.43;;;;;;;15.34;100.00;100915.09;5214309;28;20079;-80
2021/06/15 02:09:07;;;;;;;9.10;4.85;;;;;;;15.53;100.00;100920.31;5218468;28;20025;-77
2021/06/15 02:11:40;;;;;;;12.13;4.80;;;;;;;15.66;100.00;100922.22;5218424;28;20036;-76
2021/06/15 02:14:18;;;;;;;11.13;4.72;;;;;;;15.83;100.00;100924.00;5219427;28;20032;-77
2021/06/15 02:16:50;;;;;;;9.48;4.22;;;;;;;15.59;100.00;100926.13;5216905;28;20406;-77
2021/06/15 02:19:22;;;;;;;11.10;4.50;;;;;;;15.62;100.00;100930.34;5218674;28;20407;-78
2021/06/15 02:21:55;;;;;;;12.13;4.47;;;;;;;15.68;100.00;100922.16;5215839;28;20105;-78
2021/06/15 02:24:37;;;;;;;20.42;3.67;;;;;;;15.29;100.00;100925.00;5215649;28;20033;-78
2021/06/15 02:27:11;;;;;;;14.77;3.90;;;;;;;15.31;100.00;100920.50;5219373;28;20051;-78
2021/06/15 02:29:41;;;;;;;8.38;3.63;;;;;;;15.34;100.00;100925.63;5218225;28;20048;-78
2021/06/15 02:32:16;;;;;;;9.25;3.42;;;;;;;15.44;99.66;100920.75;5217646;28;20025;-77
2021/06/15 02:34:50;;;;;;;7.72;3.40;;;;;;;15.52;98.93;100929.97;5216353;28;20025;-78
2021/06/15 02:37:27;;;;;;;10.43;3.78;;;;;;;15.62;98.77;100931.22;5216062;28;20040;-78
2021/06/15 02:40:00;;;;;;;11.02;3.58;;;;;;;15.37;99.30;100938.63;5217012;28;20025;-78
2021/06/15 02:42:34;;;;;;;8.32;3.70;;;;;;;15.39;100.00;100936.78;5218778;28;20025;-77
2021/06/15 02:45:06;;;;;;;11.73;3.60;;;;;;;15.31;100.00;100933.69;5215052;28;20024;-77
2021/06/15 02:47:38;;;;;;;9.57;4.05;;;;;;;15.15;100.00;100940.59;5215763;28;20083;-77
2021/06/15 02:50:11;;;;;;;14.98;4.32;;;;;;;15.08;100.00;100938.31;5217140;28;20101;-79
2021/06/15 02:52:46;;;;;;;14.27;4.13;;;;;;;15.23;100.00;100932.31;5215061;28;20107;-79
2021/06/15 02:55:17;;;;;;;;;;;;;;;15.33;100.00;100937.09;5216168;28;20030;-77
2021/06/15 02:57:47;;;;;;;12.13;3.97;;;;;;;15.32;100.00;100934.53;5214983;28;19919;-77
2021/06/15 03:00:19;;;;;;;11.73;4.32;;;;;;;15.09;100.00;100940.88;5215485;28;20033;-78
2021/06/15 03:02:49;;;;;;;11.38;4.10;;;;;;;15.49;100.00;100934.53;5218753;28;20029;-77
2021/06/15 03:05:20;;;;;;;8.88;4.10;;;;;;;15.51;99.94;100930.91;5219828;28;20025;-78
2021/06/15 03:07:51;;;;;;;7.13;4.00;;;;;;;15.72;100.00;100936.88;5219322;28;20028;-77
2021/06/15 03:10:24;;;;;;;10.18;4.20;;;;;;;15.54;99.50;100943.09;5214364;28;20104;-77
2021/06/15 03:13:14;;;;;;;7.95;4.05;;;;;;;15.54;100.00;100943.09;5216834;28;20025;-77
2021/06/15 03:15:48;;;;;;;8.82;4.55;;;;;;;15.69;100.00;100950.22;5217741;28;20036;-79
2021/06/15 03:18:32;;;;;;;8.50;4.43;;;;;;;15.58;100.00;100961.31;5215682;28;20909;-78
2021/06/15 03:21:07;;;;;;;6.47;4.13;;;;;;;15.70;100.00;100955.41;5217108;28;20029;-77
2021/06/15 03:23:52;;;;;;;8.45;4.18;;;;;;;15.73;100.00;100955.25;5217593;28;20040;-77
2021/06/15 03:26:47;;;;;;;10.85;4.60;;;;;;;15.66;98.64;100960.88;5217727;28;20525;-79
2021/06/15 03:29:21;;;;;;;11.35;4.47;;;;;;;15.61;100.00;100963.78;5215716;28;20018;-76
2021/06/15 03:31:54;;;;;;;9.60;4.28;;;;;;;15.36;100.00;100972.97;5218839;28;20542;-77
2021/06/15 03:34:28;;;;;;;10.70;4.78;;;;;;;15.19;100.00;100976.38;5215102;28;20040;-78
2021/06/15 03:36:59;;;;;;;10.88;5.10;;;;;;;15.31;100.00;100967.91;5217103;28;20442;-79
2021/06/15 03:39:31;;;;;;;8.00;4.80;;;;;;;15.45;100.00;100965.47;5215072;28;20098;-77
2021/06/15 03:42:03;;;;;;;8.68;4.85;;;;;;;15.31;100.00;100975.81;5217501;28;20045;-77
2021/06/15 03:44:34;;;;;;;7.97;4.47;;;;;;;15.36;100.00;100984.34;5215100;28;20033;-78
2021/06/15 03:47:06;;;;;;;9.63;5.05;;;;;;;15.59;100.00;100981.44;5217534;28;20035;-79
2021/06/15 03:49:36;;;;;;;7.72;4.95;;;;;;;15.46;100.00;100987.38;5216658;28;20398;-78
2021/06/15 03:52:08;;;;;;;14.13;5.25;;;;;;;15.46;100.00;100982.97;5213467;28;20030;-77
2021/06/15 03:54:42;;;;;;;10.23;5.53;;;;;;;15.24;100.00;100995.47;5215398;28;20028;-77
2021/06/15 03:57:13;;;;;;;14.07;6.07;;;;;;;15.16;100.00;100992.31;5212030;28;20032;-79
2021/06/15 03:59:47;;;;;;;15.32;6.15;;;;;;;15.33;100.00;100981.88;5216433;28;20037;-78
2021/06/15 04:02:20;;;;;;;10.75;4.82;;;;;;;15.05;100.00;100985.84;5214148;28;20022;-78
2021/06/15 04:04:51;;;;;;;13.10;4.97;;;;;;;15.16;100.00;100991.47;5217132;28;20103;-79
2021/06/15 04:07:23;;;;;;;10.63;5.47;;;;;;;15.01;100.00;100994.84;5218197;28;20151;-76
2021/06/15 04:09:54;;;;;;;11.18;5.90;;;;;;;15.16;100.00;100994.94;5214106;28;20029;-77
2021/06/15 04:12:25;;;;;;;13.95;5.82;;;;;;;15.36;100.00;100991.41;5215819;28;20034;-78
2021/06/15 04:14:57;;;;;;;14.30;5.90;;;;;;;15.20;100.00;100993.88;5216303;28;20044;-77
2021/06/15 04:17:31;;;;;;;14.30;5.35;;;;;;;15.52;100.00;100998.47;5215456;28;20028;-78
2021/06/15 04:20:04;;;;;;;13.57;5.18;;;;;;;15.85;100.00;101002.06;5216296;28;20082;-78
2021/06/15 04:22:41;;;;;;;9.63;5.35;;;;;;;15.99;100.00;100991.69;5216110;28;20021;-77
2021/06/15 04:25:16;;;;;;;11.40;5.47;;;;;;;16.39;100.00;101001.06;5214599;28;20112;-78
2021/06/15 04:27:48;;;;;;;19.58;9.32;;;;;;;16.58;100.00;100997.34;5216974;28;20029;-78
2021/06/15 04:30:19;;;;;;;17.67;9.77;;;;;;;17.02;100.00;100998.47;5213710;28;20022;-76
2021/06/15 04:32:56;;;;;;;16.58;8.85;;;;;;;17.28;99.91;100993.44;5215020;28;20148;-78
2021/06/15 04:35:39;;;;;;;20.65;10.85;;;;;;;17.64;98.92;100995.81;5214227;28;20088;-77
2021/06/15 04:38:13;;;;;;;21.60;11.55;;;;;;;17.86;97.29;101001.56;5213392;28;20036;-77
2021/06/15 04:40:49;;;;;;;19.80;10.90;;;;;;;18.38;94.88;101001.00;5214943;28;20044;-77
2021/06/15 04:43:36;;;;;;;14.93;10.23;;;;;;;19.13;90.90;101013.00;5215148;28;20517;-77
2021/06/15 04:46:30;;;;;;;16.08;9.48;;;;;;;20.10;86.34;101012.81;5212887;28;20040;-77
2021/06/15 04:49:22;;;;;;;18.05;9.57;;;;;;;20.52;83.98;101017.81;5216546;28;20053;-78
2021/06/15 04:51:55;;;;;;;18.35;9.63;;;;;;;20.70;83.45;101026.22;5216905;28;20025;-79
2021/06/15 04:54:31;;;;;;;17.23;10.10;;;;;;;20.74;82.80;101021.53;5216152;28;20036;-77
2021/06/15 04:57:08;;;;;;;17.55;9.63;;;;;;;20.90;82.41;101027.50;5217727;28;20104;-77
2021/06/15 04:59:41;;;;;;;15.23;9.48;;;;;;;20.42;83.91;101038.84;5217735;28;20031;-77
2021/06/15 05:02:11;;;;;;;18.08;9.73;;;;;;;20.47;84.40;101034.06;5215748;28;20029;-77
2021/06/15 05:04:42;;;;;;;17.92;10.00;;;;;;;20.39;84.36;101043.53;5217817;28;20032;-77
2021/06/15 05:07:16;;;;;;;18.40;9.70;;;;;;;20.65;83.86;101042.59;5218087;28;20029;-77
2021/06/15 05:09:53;;;;;;;18.80;9.40;;;;;;;20.82;82.15;101043.09;5216601;28;20033;-77
2021/06/15 05:12:25;;;;;;;17.00;9.43;;;;;;;20.67;83.92;101036.19;5217265;28;20682;-77
2021/06/15 05:14:58;;;;;;;18.02;9.45;;;;;;;21.19;82.39;101044.88;5217755;28;20041;-77
2021/06/15 05:17:29;;;;;;;15.20;9.25;;;;;;;21.42;82.18;101046.75;5218965;28;20045;-76
2021/06/15 05:20:00;;;;;;;17.88;10.20;;;;;;;21.67;79.38;101050.19;5218468;28;20029;-78
2021/06/15 05:22:36;;;;;;;16.65;9.95;;;;;;;21.51;80.30;101051.38;5216107;28;20052;-77
2021/06/15 05:25:09;;;;;;;22.13;10.05;;;;;;;21.64;79.72;101052.22;5217186;28;20021;-77
2021/06/15 05:27:40;;;;;;;18.92;10.23;;;;;;;21.98;78.84;101043.44;5216150;28;20108;-79
2021/06/15 05:30:11;;;;;;;17.67;10.02;;;;;;;22.74;76.58;101041.00;5215307;28;20559;-77
2021/06/15 05:32:41;;;;;;;16.98;9.60;;;;;;;22.61;74.93;101047.38;5216282;28;20060;-78
2021/06/15 05:35:12;;;;;;;19.45;10.05;;;;;;;22.96;75.27;101046.34;5216641;28;20048;-77
2021/06/15 05:37:43;;;;;;;19.20;10.23;;;;;;;23.21;74.08;101042.59;5216738;28;20450;-77
2021/06/15 05:40:14;;;;;;;15.32;9.55;;;;;;;22.54;75.62;101038.19;5217726;28;20063;-77
2021/06/15 05:42:45;;;;;;;17.45;10.55;;;;;;;22.77;76.26;101045.22;5216579;28;20017;-77
2021/06/15 05:45:15;;;;;;;19.30;11.07;;;;;;;22.93;74.57;101043.06;5216893;28;20098;-78
2021/06/15 05:47:46;;;;;;;16.20;10.30;;;;;;;23.05;75.91;101042.94;5215201;28;20037;-78
2021/06/15 05:50:16;;;;;;;20.90;11.50;;;;;;;22.50;76.99;101052.72;5219141;28;20017;-77
2021/06/15 05:52:46;;;;;;;19.10;11.10;;;;;;;22.54;77.33;101054.19;5212633;28;20025;-78
2021/06/15 05:55:18;;;;;;;19.95;10.98;;;;;;;22.68;76.51;101054.78;5215468;28;20064;-77
2021/06/15 05:57:49;;;;;;;20.42;11.40;;;;;;;22.37;77.97;101045.72;5212621;28;20027;-77
2021/06/15 06:00:19;;;;;;;20.35;10.93;;;;;;;22.83;76.93;101052.78;5216894;28;20475;-77
2021/06/15 06:02:51;;;;;;;17.67;10.85;;;;;;;23.23;76.14;101049.50;5218676;28;20036;-78
2021/06/15 06:08:07;;;;;;;17.52;10.68;;;;;;;23.45;75.73;101052.16;5214191;28;20017;-75
2021/06/15 06:10:39;;;;;;;21.33;11.25;;;;;;;23.05;75.30;101053.59;5212383;28;20390;-76
2021/06/15 06:13:11;;;;;;;15.80;10.75;;;;;;;22.46;78.12;101058.41;5217195;28;20040;-80
2021/06/15 06:15:42;;;;;;;21.52;11.55;;;;;;;22.37;78.18;101057.25;5211739;28;20060;-77
2021/06/15 06:18:13;;;;;;;16.92;10.90;;;;;;;22.44;78.48;101052.34;5217931;28;20055;-78
2021/06/15 06:20:43;;;;;;;18.20;10.57;;;;;;;22.64;76.01;101054.31;5219736;28;20086;-78
2021/06/15 06:23:14;;;;;;;17.95;10.98;;;;;;;22.69;76.54;101061.81;5215628;28;20706;-78
2021/06/15 06:25:44;;;;;;;17.58;9.70;;;;;;;23.33;76.28;101061.13;5219724;28;20021;-77
2021/06/15 06:28:14;;;;;;;20.58;10.65;;;;;;;23.09;75.93;101062.22;5224699;28;20052;-78
2021/06/15 06:30:45;;;;;;;20.95;10.50;;;;;;;22.45;77.54;101062.03;5221125;28;20033;-77
2021/06/15 06:33:15;;;;;;;20.20;10.75;;;;;;;21.95;80.01;101051.66;5225861;28;20036;-78
2021/06/15 06:35:45;;;;;;;15.80;10.30;;;;;;;22.69;77.36;101059.16;5225331;28;20111;-79
2021/06/15 06:38:15;;;;;;;22.10;9.90;;;;;;;22.44;78.24;101065.66;5222480;28;20276;-78
2021/06/15 06:40:46;;;;;;;14.18;9.88;;;;;;;22.96;77.31;101066.81;5223802;28;20306;-79
2021/06/15 06:43:16;;;;;;;17.10;10.70;;;;;;;22.49;77.90;101058.16;5221874;28;20101;-78
2021/06/15 06:45:46;;;;;;;16.45;9.85;;;;;;;22.56;79.14;101065.56;5224541;28;20054;-78
2021/06/15 06:48:18;;;;;;;18.83;10.60;;;;;;;22.03;81.15;101076.75;5221069;28;20044;-77
2021/06/15 06:50:48;;;;;;;20.40;11.00;;;;;;;21.80;81.52;101084.72;5224800;28;20028;-79
2021/06/15 06:53:18;;;;;;;19.08;9.95;;;;;;;21.95;81.71;101075.63;5222286;28;20032;-79
2021/06/15 06:55:49;;;;;;;15.55;9.93;;;;;;;21.95;81.83;101078.28;5223785;28;20044;-79
2021/06/15 06:58:19;;;;;;;15.70;10.63;;;;;;;22.07;80.90;101064.88;5224366;28;20063;-77
2021/06/15 07:00:50;;;;;;;17.00;10.43;;;;;;;23.18;77.59;101065.03;5219156;28;20052;-78
2021/06/15 07:03:20;;;;;;;19.85;10.05;;;;;;;24.05;74.81;101068.50;5224546;28;20031;-78
2021/06/15 07:05:50;;;;;;;17.60;9.43;;;;;;;24.89;72.53;101069.25;5225512;28;20104;-78
2021/06/15 07:08:21;;;;;;;16.15;9.65;;;;;;;24.10;73.76;101068.97;5220779;28;20283;-78
2021/06/15 07:10:51;;;;;;;17.27;9.48;;;;;;;24.17;73.07;101071.94;5223425;28;20056;-78
2021/06/15 07:13:23;;;;;;;15.15;9.00;;;;;;;23.36;74.16;101068.88;5219910;28;20085;-78
2021/06/15 07:15:53;;;;;;;16.67;8.73;;;;;;;23.26;75.82;101067.94;5222748;28;20025;-78
2021/06/15 07:18:23;;;;;;;19.05;8.82;;;;;;;22.61;77.96;101071.38;5219914;28;20029;-77
2021/06/15 07:20:54;;;;;;;17.40;8.95;;;;;;;22.46;79.79;101069.06;5223527;28;20035;-78
2021/06/15 07:23:24;;;;;;;17.75;8.65;;;;;;;22.29;79.59;101066.78;5220833;28;20088;-79
2021/06/15 07:25:54;;;;;;;16.97;8.73;;;;;;;21.93;80.71;101065.06;5222206;28;20040;-76
2021/06/15 07:28:25;;;;;;;16.80;8.67;;;;;;;21.70;81.44;101063.28;5218030;28;20295;-77
2021/06/15 07:30:55;;;;;;;14.55;8.40;;;;;;;21.53;81.78;101076.91;5223095;28;20275;-79
2021/06/15 07:33:25;;;;;;;16.27;9.10;;;;;;;21.01;83.75;101072.78;5221312;28;20033;-79
2021/06/15 07:35:55;;;;;;;16.00;8.32;;;;;;;21.32;83.73;101072.28;5223063;28;20280;-78
2021/06/15 07:38:26;;;;;;;14.52;8.32;;;;;;;21.21;83.15;101080.22;5220579;28;20027;-78
2021/06/15 07:40:57;;;;;;;16.60;8.85;;;;;;;21.27;83.15;101077.09;5222884;28;20037;-79
2021/06/15 07:43:28;;;;;;;12.02;7.72;;;;;;;21.13;83.98;101074.56;5220359;28;20060;-78
2021/06/15 07:45:58;;;;;;;9.82;6.70;;;;;;;21.29;83.51;101088.47;5223134;28;20029;-77
2021/06/15 07:48:29;;;;;;;14.07;8.10;;;;;;;21.09;83.02;101084.56;5219727;28;20083;-79
2021/06/15 07:50:59;;;;;;;17.13;8.65;;;;;;;21.21;82.43;101085.53;5220395;28;20082;-79
2021/06/15 07:53:30;;;;;;;15.60;7.60;;;;;;;21.41;81.81;101079.63;5217569;28;20471;-77
2021/06/15 07:56:00;;;;;;;12.75;6.65;;;;;;;21.55;81.48;101076.81;5222278;28;20056;-79
2021/06/15 07:58:31;;;;;;;12.02;6.97;;;;;;;21.68;80.96;101089.16;5219660;28;20040;-78
2021/06/15 08:01:01;;;;;;;13.25;6.60;;;;;;;21.51;81.63;101092.16;5220728;28;20061;-77
2021/06/15 08:03:31;;;;;;;13.25;5.97;;;;;;;21.61;81.74;101095.00;5220325;28;20029;-80
2021/06/15 08:06:02;;;;;;;14.00;5.65;;;;;;;21.40;81.20;101092.06;5223593;28;20023;-78
2021/06/15 08:08:32;;;;;;;9.65;5.65;;;;;;;21.57;80.05;101096.19;5220054;28;20034;-79
2021/06/15 08:11:03;;;;;;;11.75;5.50;;;;;;;21.81;80.98;101099.75;5216624;28;20581;-78
2021/06/15 08:13:33;;;;;;;13.23;5.53;;;;;;;21.52;80.40;101100.97;5219845;28;20057;-77
2021/06/15 08:16:04;;;;;;;8.80;5.10;;;;;;;21.79;79.47;101104.31;5215271;28;20039;-77
2021/06/15 08:18:34;;;;;;;11.23;5.28;;;;;;;21.54;79.20;101105.22;5212332;28;20029;-78
2021/06/15 08:21:05;;;;;;;13.57;5.60;;;;;;;21.40;80.69;101112.50;5213157;28;20029;-78
2021/06/15 08:23:35;;;;;;;10.20;5.38;;;;;;;21.71;79.33;101104.06;5218581;28;20510;-78
2021/06/15 08:26:05;;;;;;;9.20;5.10;;;;;;;21.68;80.60;101102.44;5216117;28;20511;-76
2021/06/15 08:28:36;;;;;;;11.55;4.88;;;;;;;21.84;78.07;101104.84;5215983;28;20029;-77
2021/06/15 08:31:07;;;;;;;10.75;5.03;;;;;;;21.82;78.68;101114.75;5216859;28;20048;-76
2021/06/15 08:33:37;;;;;;;11.77;5.38;;;;;;;22.02;77.74;101111.47;5220441;28;20036;-78
2021/06/15 08:36:07;;;;;;;10.27;4.97;;;;;;;22.30;77.59;101108.44;5222156;28;20036;-78
2021/06/15 08:38:38;;;;;;;12.80;4.75;;;;;;;22.87;76.24;101108.38;5223095;28;20040;-78
2021/06/15 08:41:08;;;;;;;9.82;4.40;;;;;;;23.58;73.90;101102.72;5220897;28;20028;-78
2021/06/15 08:43:38;;;;;;;12.95;4.50;;;;;;;23.73;72.90;101098.81;5220704;28;20033;-77
2021/06/15 08:46:11;;;;;;;7.45;4.53;;;;;;;23.62;72.34;101102.34;5220799;28;20084;-78
2021/06/15 08:48:41;;;;;;;9.20;4.20;;;;;;;23.68;72.42;101106.34;5221970;28;20104;-78
2021/06/15 08:51:11;;;;;;;11.60;4.85;;;;;;;23.06;74.18;101108.63;5222135;28;20025;-77
2021/06/15 08:53:42;;;;;;;9.63;3.95;;;;;;;23.28;75.40;101103.34;5220248;28;20026;-79
2021/06/15 08:56:22;;;;;;;12.18;4.40;;;;;;;24.12;73.06;101112.44;5221016;28;20541;-77
2021/06/15 08:58:58;;;;;;;8.63;4.18;;;;;;;23.71;71.80;101109.59;5221014;28;20056;-78
2021/06/15 09:01:28;;;;;;;7.53;4.35;;;;;;;23.99;72.82;101121.56;5219754;28;20040;-78
2021/06/15 09:03:59;;;;;;;10.38;4.07;;;;;;;25.04;69.90;101116.06;5223945;28;20024;-79
2021/06/15 09:06:31;;;;;;;10.05;4.65;;;;;;;24.71;70.36;101110.94;5210525;28;20386;-78
2021/06/15 09:09:03;;;;;;;9.50;3.90;;;;;;;25.59;67.22;101108.44;5222406;28;20636;-78
2021/06/15 09:11:57;;;;;;;8.60;3.72;;;;;;;25.22;67.58;101119.84;5216858;28;20037;-78
2021/06/15 09:14:55;;;;;;;10.35;4.93;;;;;;;25.88;66.26;101109.41;5219101;28;20053;-80
2021/06/15 09:17:26;;;;;;;8.25;4.50;;;;;;;26.33;65.78;101102.50;5219702;28;20061;-78
2021/06/15 09:20:32;;;;;;;12.00;4.45;;;;;;;26.62;64.59;101107.84;5217412;28;20021;-78
2021/06/15 09:23:08;;;;;;;9.23;4.70;;;;;;;26.61;64.28;101100.81;5149978;28;20512;-78
2021/06/15 09:25:39;;;;;;;11.27;4.40;;;;;;;26.83;65.44;101107.56;5208601;28;20676;-78
2021/06/15 09:28:20;;;;;;;7.57;3.67;;;;;;;27.58;62.08;101094.84;5215945;28;20029;-78
2021/06/15 09:31:03;;;;;;;8.43;4.22;;;;;;;25.70;65.94;101107.47;5218484;28;20033;-78
2021/06/15 09:33:44;;;;;;;8.55;4.13;;;;;;;25.85;66.43;101092.75;5221006;28;20501;-77
2021/06/15 09:36:15;;;;;;;10.45;4.05;;;;;;;26.54;64.24;101092.47;5218638;28;20048;-78
2021/06/15 09:38:53;;;;;;;14.93;4.30;;;;;;;27.43;62.26;101090.94;5218981;28;20029;-79
2021/06/15 09:41:52;;;;;;;8.20;3.65;;;;;;;28.45;60.87;101088.72;5217968;28;20081;-78
2021/06/15 09:44:26;;;;;;;7.85;3.45;;;;;;;28.23;60.46;101091.84;5212726;28;20045;-79
2021/06/15 09:47:03;;;;;;;6.55;3.50;;;;;;;27.05;62.18;101099.16;5222073;28;20056;-77
2021/06/15 09:49:43;;;;;;;8.65;3.30;;;;;;;27.07;62.40;101099.84;5217283;28;20033;-78
2021/06/15 09:52:15;;;;;;;10.05;3.38;;;;;;;26.58;62.68;101106.47;5216575;28;20084;-78
2021/06/15 09:54:49;;;;;;;9.52;3.40;;;;;;;26.30;63.38;101112.63;5219685;28;20092;-78
2021/06/15 09:57:28;;;;;;;7.38;3.15;;;;;;;26.08;63.76;101111.09;5220781;28;20029;-78
2021/06/15 10:00:04;;;;;;;6.47;3.00;;;;;;;25.48;65.02;101110.38;5216492;28;20044;-77
2021/06/15 10:02:45;;;;;;;7.78;3.15;;;;;;;26.32;64.61;101108.84;5220859;28;20040;-78
2021/06/15 10:05:24;;;;;;;8.50;3.25;;;;;;;26.54;63.79;101103.22;5215316;28;20060;-78
2021/06/15 10:08:00;;;;;;;6.90;3.20;;;;;;;26.73;62.32;101106.72;5215837;28;20031;-78
2021/06/15 10:10:36;;;;;;;10.07;3.63;;;;;;;26.38;63.24;101110.13;5218213;28;20724;-77
2021/06/15 10:13:07;;;;;;;;;;;;;;;26.00;65.65;101104.75;5220610;28;20096;-78
2021/06/15 10:15:40;;;;;;;7.55;3.10;;;;;;;26.58;63.46;101101.09;5218785;28;19951;-79
2021/06/15 10:18:11;;;;;;;9.32;3.10;;;;;;;26.71;62.90;101093.59;5217318;28;20037;-77
2021/06/15 10:20:42;;;;;;;6.68;3.15;;;;;;;25.80;64.23;101103.84;5208210;28;20087;-78
2021/06/15 10:23:12;;;;;;;6.60;3.10;;;;;;;25.64;65.88;101095.47;5214952;28;20101;-79
2021/06/15 10:25:43;;;;;;;8.07;3.00;;;;;;;25.95;65.18;101091.75;5216929;28;20033;-77
2021/06/15 10:28:13;;;;;;;7.07;2.90;;;;;;;25.38;64.05;101096.09;5226960;28;20717;-77
2021/06/15 10:30:45;;;;;;;7.50;3.10;;;;;;;25.32;66.74;101096.66;5220421;28;20040;-77
2021/06/15 10:33:19;;;;;;;8.57;2.80;;;;;;;25.10;66.21;101099.47;5216200;28;20476;-78
2021/06/15 10:35:53;;;;;;;6.07;2.67;;;;;;;25.40;65.18;101088.78;5216710;28;20033;-79
2021/06/15 10:38:29;;;;;;;7.43;2.90;;;;;;;25.49;64.82;101083.47;5218424;28;20502;-77
2021/06/15 10:41:02;;;;;;;6.47;2.55;;;;;;;25.62;64.92;101085.88;5220692;28;20114;-77
2021/06/15 10:43:35;;;;;;;6.15;2.63;;;;;;;25.42;65.05;101076.97;5214679;28;20029;-78
2021/06/15 10:46:22;;;;;;;6.25;2.60;;;;;;;25.26;64.82;101086.47;5217574;28;20021;-77
2021/06/15 10:49:00;;;;;;;4.93;2.08;;;;;;;25.03;65.93;101087.63;5216951;28;20403;-77
2021/06/15 10:51:42;;;;;;;5.03;1.98;;;;;;;24.91;66.19;101086.88;5216874;28;20525;-78
2021/06/15 10:54:32;;;;;;;6.10;2.20;;;;;;;25.15;65.42;101084.72;5216586;28;20028;-78
2021/06/15 10:57:23;;;;;;;7.00;2.28;;;;;;;25.27;64.95;101077.47;5215166;28;20649;-78
2021/06/15 11:00:26;;;;;;;5.40;1.88;;;;;;;25.01;65.58;101084.22;5218805;28;20021;-77
2021/06/15 11:03:15;;;;;;;7.32;2.40;;;;;;;24.57;66.68;101087.19;5214882;28;20120;-77
2021/06/15 11:05:45;;;;;;;7.93;2.03;;;;;;;24.73;65.38;101081.41;5217868;28;20096;-78
2021/06/15 11:08:22;;;;;;;7.57;1.97;;;;;;;24.76;66.19;101084.66;5219190;28;20108;-78
2021/06/15 11:10:56;;;;;;;7.60;2.45;;;;;;;25.05;65.33;101089.19;5215058;28;20087;-78
2021/06/15 11:13:47;;;;;;;7.07;2.05;;;;;;;25.23;65.12;101084.06;5212583;28;20079;-77
2021/06/15 11:16:47;;;;;;;6.22;2.40;;;;;;;24.71;64.99;101073.50;5218560;28;20032;-78
2021/06/15 11:19:17;;;;;;;6.05;2.60;;;;;;;24.96;65.45;101083.78;5214128;28;20046;-77
2021/06/15 11:21:57;;;;;;;7.40;2.40;;;;;;;25.25;64.56;101069.59;5210809;28;20045;-79
2021/06/15 11:24:38;;;;;;;6.90;2.20;;;;;;;25.13;66.25;101081.31;5214824;28;20123;-78
2021/06/15 11:27:18;;;;;;;6.38;2.03;;;;;;;24.89;66.23;101080.81;5216993;28;20040;-78
2021/06/15 11:29:49;;;;;;;6.80;2.30;;;;;;;25.29;66.15;101084.38;5215646;28;20021;-77
2021/06/15 11:32:20;;;;;;;11.77;2.58;;;;;;;25.35;64.88;101077.66;5209540;28;20025;-78
2021/06/15 11:34:53;;;;;;;6.15;2.10;;;;;;;25.70;65.15;101086.06;5214244;28;20032;-78
2021/06/15 11:37:27;;;;;;;7.35;2.30;;;;;;;25.53;65.71;101079.53;5214417;28;20155;-77
2021/06/15 11:40:19;;;;;;;8.02;2.30;;;;;;;25.35;66.30;101075.78;5214308;28;20498;-77
2021/06/15 11:42:55;;;;;;;6.22;2.20;;;;;;;25.33;64.77;101080.44;5212425;28;20044;-77
2021/06/15 11:45:31;;;;;;;5.07;1.90;;;;;;;25.34;64.98;101079.47;5210764;28;20045;-78
2021/06/15 11:48:15;;;;;;;8.73;2.30;;;;;;;25.01;65.61;101084.22;5214045;28;20021;-77
2021/06/15 11:50:51;;;;;;;6.45;2.17;;;;;;;24.97;65.48;101088.16;5213977;28;20064;-78